Time;durP1;ratioP1;P1;durP2;ratioP2;P2;SDS_P1;SDS_P2;PMS_P1;PMS_P2;Temp;Humidity;BMP_temperature;BMP_pressure;BME280_temperature;BME280_humidity;BME280_pressure;Samples;Min_cycle;Max_cycle;Signal;HPM_P1;HPM_P2
2023/08/29 00:02:18;;;;;;;;;3.00;3.00;;;;;18.36;55.49;100917.88;5055489;28;61245;-70
2023/08/29 00:04:44;;;;;;;;;2.00;2.00;;;;;18.34;55.63;100913.72;5056628;28;45398;-71
2023/08/29 00:07:09;;;;;;;;;4.00;3.00;;;;;18.20;56.02;100901.97;5071336;27;58957;-71
2023/08/29 00:09:35;;;;;;;;;2.00;2.00;;;;;18.25;55.78;100910.31;5059370;28;53298;-70
2023/08/29 00:12:00;;;;;;;;;2.33;2.33;;;;;18.27;56.17;100924.41;5060321;28;45427;-71
2023/08/29 00:14:25;;;;;;;;;4.33;3.33;;;;;18.22;56.19;100916.09;5060669;28;45493;-72
2023/08/29 00:16:51;;;;;;;;;3.33;3.33;;;;;18.28;55.94;100923.41;5059046;28;45538;-74
2023/08/29 00:19:17;;;;;;;;;4.00;3.00;;;;;18.19;56.25;100902.97;5041767;28;47287;-70
2023/08/29 00:21:42;;;;;;;;;4.00;4.00;;;;;18.29;56.23;100924.22;5058409;28;45728;-70
2023/08/29 00:24:08;;;;;;;;;4.00;4.00;;;;;18.22;56.26;100910.72;5060252;28;45618;-70
2023/08/29 00:26:34;;;;;;;;;2.00;2.00;;;;;18.23;56.42;100923.97;5060079;28;45411;-71
2023/08/29 00:28:59;;;;;;;;;3.67;3.67;;;;;18.25;56.60;100926.47;5059754;28;45497;-69
2023/08/29 00:31:25;;;;;;;;;3.25;2.00;;;;;18.16;56.77;100922.22;5059729;28;46856;-72
2023/08/29 00:33:51;;;;;;;;;3.50;3.00;;;;;17.98;56.71;100882.25;5059710;28;45318;-70
2023/08/29 00:36:16;;;;;;;;;4.00;3.00;;;;;18.20;56.71;100924.31;5058859;28;45502;-70
2023/08/29 00:38:42;;;;;;;;;2.00;2.00;;;;;18.20;56.60;100920.78;5060413;28;45591;-70
2023/08/29 00:41:07;;;;;;;;;3.67;3.00;;;;;18.16;56.79;100906.06;5059771;28;45251;-71
2023/08/29 00:43:32;;;;;;;;;2.67;2.67;;;;;18.21;56.95;100922.47;5059830;28;45428;-69
2023/08/29 00:45:58;;;;;;;;;3.00;3.00;;;;;18.21;56.70;100914.38;5059809;28;45197;-72
2023/08/29 00:48:25;;;;;;;;;1.33;0.00;;;;;18.05;56.62;100895.81;5059372;28;46437;-72
2023/08/29 00:50:50;;;;;;;;;2.67;2.67;;;;;18.21;57.23;100909.00;5059624;28;45394;-70
2023/08/29 00:53:16;;;;;;;;;2.33;2.33;;;;;18.15;56.95;100902.53;5075104;27;45315;-70
2023/08/29 00:55:42;;;;;;;;;1.33;1.33;;;;;18.16;56.96;100911.44;5060023;28;45387;-71
2023/08/29 00:58:07;;;;;;;;;2.33;2.33;;;;;18.08;57.17;100901.63;5059160;28;45730;-72
2023/08/29 01:00:33;;;;;;;;;2.33;2.33;;;;;18.05;57.39;100898.50;5059575;28;45362;-69
2023/08/29 01:03:00;;;;;;;;;2.67;2.33;;;;;17.91;57.59;100875.97;5058945;28;45435;-70
2023/08/29 01:05:28;;;;;;;;;2.67;2.67;;;;;18.09;57.64;100913.22;5059387;28;45194;-70
2023/08/29 01:07:58;;;;;;;;;3.33;3.00;;;;;17.70;57.84;100860.63;5059122;28;46068;-70
2023/08/29 01:10:51;;;;;;;;;3.00;2.00;;;;;18.03;57.77;100919.38;5059389;28;45548;-71
2023/08/29 01:13:48;;;;;;;;;4.33;2.67;;;;;18.01;57.77;100913.31;5059302;28;45597;-71
2023/08/29 01:16:21;;;;;;;;;2.00;2.00;;;;;17.38;58.13;100810.72;5059317;28;45392;-70
2023/08/29 01:18:46;;;;;;;;;1.67;1.67;;;;;17.98;58.49;100909.16;5073992;27;47662;-70
2023/08/29 01:21:39;;;;;;;;;5.00;4.00;;;;;17.98;58.40;100909.16;5059059;28;45371;-72
2023/08/29 01:24:10;;;;;;;;;3.00;3.00;;;;;17.59;58.45;100842.22;5045657;28;45535;-71
2023/08/29 01:26:36;;;;;;;;;2.67;2.67;;;;;17.89;58.59;100897.69;5059195;28;45236;-71
2023/08/29 01:29:03;;;;;;;;;4.00;3.00;;;;;17.88;58.83;100898.72;5059018;28;45509;-71
2023/08/29 01:31:30;;;;;;;;;1.33;1.33;;;;;17.52;58.90;100841.31;5057234;28;45444;-71
2023/08/29 01:33:57;;;;;;;;;3.67;2.33;;;;;17.80;59.03;100896.09;5059743;28;45311;-70
2023/08/29 01:36:39;;;;;;;;;3.00;3.00;;;;;17.81;58.84;100897.75;5058995;28;45526;-73
2023/08/29 01:39:04;;;;;;;;;3.00;2.00;;;;;17.82;59.22;100904.84;5058617;28;46453;-71
2023/08/29 01:41:30;;;;;;;;;4.00;3.00;;;;;17.46;59.35;100845.59;5058299;28;51825;-70
2023/08/29 01:43:55;;;;;;;;;3.00;2.00;;;;;17.71;59.16;100893.72;5058723;28;45478;-70
2023/08/29 01:46:20;;;;;;;;;3.67;2.00;;;;;17.64;59.36;100883.69;5058962;28;45399;-70
2023/08/29 01:48:47;;;;;;;;;3.33;2.00;;;;;17.81;59.54;100902.31;5058185;28;45682;-72
2023/08/29 01:51:12;;;;;;;;;2.00;2.00;;;;;17.75;59.41;100893.16;5058671;28;45276;-70
2023/08/29 01:53:38;;;;;;;;;2.33;2.33;;;;;17.79;59.26;100909.72;5058587;28;45307;-69
2023/08/29 01:56:07;;;;;;;;;3.00;3.00;;;;;17.75;59.65;100908.44;5058668;28;45605;-71
2023/08/29 01:58:33;;;;;;;;;4.67;4.67;;;;;17.00;59.77;100781.28;5058180;28;46452;-71
2023/08/29 02:00:59;;;;;;;;;4.67;3.00;;;;;17.57;59.77;100879.22;5059145;28;45419;-70
2023/08/29 02:03:24;;;;;;;;;4.33;3.33;;;;;17.63;59.79;100889.25;5058174;28;45346;-71
2023/08/29 02:05:50;;;;;;;;;2.00;2.00;;;;;17.62;59.92;100887.59;5073938;27;45514;-70
2023/08/29 02:08:15;;;;;;;;;3.00;3.00;;;;;17.66;59.90;100890.72;5058075;28;45612;-71
2023/08/29 02:10:41;;;;;;;;;4.00;2.00;;;;;17.71;59.93;100902.63;5058429;28;45468;-71
2023/08/29 02:13:06;;;;;;;;;3.00;2.33;;;;;17.67;60.12;100901.28;5058407;28;45490;-72
2023/08/29 02:15:31;;;;;;;;;4.67;3.00;;;;;17.55;59.93;100883.94;5058513;28;45441;-72
2023/08/29 02:17:57;;;;;;;;;4.00;3.00;;;;;17.65;60.51;100903.34;5057359;28;46664;-69
2023/08/29 02:20:22;;;;;;;;;4.00;4.00;;;;;17.64;60.16;100901.66;5058250;28;45351;-69
2023/08/29 02:22:48;;;;;;;;;2.67;2.67;;;;;17.57;60.44;100901.56;5058466;28;45496;-70
2023/08/29 02:25:13;;;;;;;;;4.00;4.00;;;;;17.60;60.33;100903.88;5057548;28;45361;-72
2023/08/29 02:27:39;;;;;;;;;4.00;4.00;;;;;17.58;60.68;100902.38;5056888;28;47341;-72
2023/08/29 02:30:05;;;;;;;;;3.00;3.00;;;;;17.26;60.51;100858.75;5073097;27;56415;-69
2023/08/29 02:32:31;;;;;;;;;3.33;3.33;;;;;17.43;60.80;100899.72;5056887;28;45482;-71
2023/08/29 02:34:56;;;;;;;;;3.33;3.33;;;;;17.46;60.61;100902.03;5058464;28;45424;-70
2023/08/29 02:37:21;;;;;;;;;3.00;3.00;;;;;17.56;60.88;100925.94;5057579;28;46321;-69
2023/08/29 02:39:47;;;;;;;;;4.33;4.00;;;;;17.25;60.73;100870.53;5057692;28;45243;-76
2023/08/29 02:42:12;;;;;;;;;4.00;3.33;;;;;17.50;60.97;100915.94;5057866;28;45403;-70
2023/08/29 02:44:38;;;;;;;;;2.00;2.00;;;;;17.52;61.27;100924.66;5056677;28;45490;-70
2023/08/29 02:47:04;;;;;;;;;5.00;3.00;;;;;17.58;61.05;100929.28;5057100;28;45578;-70
2023/08/29 02:49:31;;;;;;;;;3.33;3.00;;;;;17.44;61.44;100905.94;5057503;28;45370;-68
2023/08/29 02:51:56;;;;;;;;;3.00;3.00;;;;;17.56;61.45;100920.56;5056138;28;45426;-71
2023/08/29 02:54:21;;;;;;;;;3.00;3.00;;;;;17.57;61.29;100919.53;5058109;28;45315;-71
2023/08/29 02:56:47;;;;;;;;;5.00;5.00;;;;;17.56;61.92;100915.19;5057593;28;46596;-69
2023/08/29 02:59:12;;;;;;;;;3.33;3.00;;;;;17.56;61.78;100912.50;5072971;27;45393;-70
2023/08/29 03:01:37;;;;;;;;;5.00;2.67;;;;;17.60;61.47;100914.63;5056207;28;45441;-72
2023/08/29 03:04:03;;;;;;;;;4.00;4.00;;;;;17.49;61.63;100892.78;5057145;28;45451;-72
2023/08/29 03:06:29;;;;;;;;;4.00;4.00;;;;;17.51;61.52;100894.25;5056127;28;47542;-71
2023/08/29 03:08:54;;;;;;;;;3.00;3.00;;;;;17.31;61.71;100853.66;5057358;28;45346;-70
2023/08/29 03:11:19;;;;;;;;;3.00;3.00;;;;;17.44;61.87;100882.56;5057404;28;45533;-72
2023/08/29 03:13:45;;;;;;;;;6.00;4.00;;;;;17.24;61.66;100842.00;5073228;27;45336;-70
2023/08/29 03:16:14;;;;;;;;;4.33;4.33;;;;;17.51;61.89;100885.34;5057085;28;46225;-71
2023/08/29 03:18:39;;;;;;;;;6.00;6.00;;;;;17.36;62.00;100860.31;5055115;28;45459;-71
2023/08/29 03:21:08;;;;;;;;;4.00;4.00;;;;;17.53;61.96;100884.13;5057451;28;45936;-71
2023/08/29 03:23:35;;;;;;;;;5.00;4.00;;;;;17.66;62.14;100899.63;5057509;28;45335;-71
2023/08/29 03:26:08;;;;;;;;;7.33;4.67;;;;;17.65;61.56;100895.28;5057024;28;45605;-69
2023/08/29 03:28:35;;;;;;;;;6.33;5.67;;;;;17.38;61.94;100853.72;5052062;28;45430;-70
2023/08/29 03:31:15;;;;;;;;;7.00;7.00;;;;;17.67;61.98;100901.28;5057189;28;46041;-71
2023/08/29 03:33:41;;;;;;;;;4.00;4.00;;;;;17.67;61.94;100900.47;5055516;28;45506;-70
2023/08/29 03:36:07;;;;;;;;;3.00;3.00;;;;;17.51;61.90;100869.22;5056955;28;46152;-71
2023/08/29 03:38:37;;;;;;;;;2.67;2.67;;;;;17.57;62.08;100863.09;5055008;28;45527;-70
2023/08/29 03:41:04;;;;;;;;;8.33;7.67;;;;;17.62;62.11;100876.81;5057113;28;45242;-70
2023/08/29 03:43:31;;;;;;;;;5.33;5.00;;;;;17.66;61.94;100883.50;5056362;28;45632;-71
2023/08/29 03:46:14;;;;;;;;;9.00;9.00;;;;;17.62;61.84;100885.72;5056629;28;46332;-71
2023/08/29 03:48:40;;;;;;;;;12.67;12.67;;;;;17.66;61.93;100891.56;5071495;27;45474;-70
2023/08/29 03:51:06;;;;;;;;;7.00;7.00;;;;;17.29;61.75;100823.44;5057277;28;45496;-71
2023/08/29 03:53:36;;;;;;;;;9.33;7.33;;;;;17.65;62.10;100887.19;5056937;28;45272;-71
2023/08/29 03:56:05;;;;;;;;;16.00;13.67;;;;;17.62;61.81;100882.19;5056610;28;46544;-71
2023/08/29 03:58:31;;;;;;;;;12.33;11.00;;;;;17.54;62.26;100875.06;5056340;28;45341;-70
2023/08/29 04:00:57;;;;;;;;;10.33;9.00;;;;;17.57;62.07;100882.75;5055345;28;45501;-71
2023/08/29 04:03:24;;;;;;;;;11.00;11.00;;;;;17.53;62.39;100891.38;5056248;28;45379;-70
2023/08/29 04:05:49;;;;;;;;;12.00;11.33;;;;;17.43;62.45;100866.63;5056459;28;46675;-70
2023/08/29 04:08:14;;;;;;;;;8.00;8.00;;;;;17.11;62.51;100814.91;5055964;28;50595;-70
2023/08/29 04:10:41;;;;;;;;;7.00;7.00;;;;;17.51;62.20;100882.66;5056374;28;45410;-70
2023/08/29 04:13:07;;;;;;;;;9.00;6.67;;;;;17.52;62.57;100881.63;5056775;28;45411;-70
2023/08/29 04:15:33;;;;;;;;;7.33;7.33;;;;;17.53;62.80;100883.31;5056504;28;45589;-71
2023/08/29 04:17:59;;;;;;;;;11.33;9.33;;;;;17.54;62.42;100890.34;5054811;28;46059;-70
2023/08/29 04:20:25;;;;;;;;;3.33;3.33;;;;;17.44;62.58;100866.44;5056718;28;45529;-72
2023/08/29 04:22:51;;;;;;;;;8.00;7.00;;;;;17.50;62.60;100872.94;5056101;28;45519;-71
2023/08/29 04:25:16;;;;;;;;;7.00;7.00;;;;;17.47;63.29;100873.31;5056036;28;46421;-71
2023/08/29 04:27:42;;;;;;;;;7.67;6.33;;;;;17.41;62.91;100863.28;5056096;28;45489;-70
2023/08/29 04:30:07;;;;;;;;;6.00;6.00;;;;;17.44;62.89;100868.31;5056272;28;45419;-71
2023/08/29 04:32:37;;;;;;;;;6.33;6.33;;;;;17.42;63.06;100870.31;5055976;28;45545;-71
2023/08/29 04:35:06;;;;;;;;;5.33;5.33;;;;;17.18;62.90;100837.34;5071859;27;47596;-71
2023/08/29 04:37:35;;;;;;;;;7.00;6.00;;;;;17.08;62.93;100828.72;5056208;28;45527;-70
2023/08/29 04:40:02;;;;;;;;;5.00;5.00;;;;;17.32;63.39;100875.97;5055706;28;45411;-69
2023/08/29 04:42:27;;;;;;;;;6.33;3.67;;;;;17.15;63.57;100847.63;5070503;27;45551;-71
2023/08/29 04:44:54;;;;;;;;;6.67;6.67;;;;;17.28;63.67;100872.84;5071369;27;47841;-71
2023/08/29 04:47:22;;;;;;;;;4.67;3.33;;;;;17.25;63.42;100859.78;5054631;28;45510;-70
2023/08/29 04:49:47;;;;;;;;;6.00;5.00;;;;;17.24;63.74;100868.03;5054744;28;45482;-71
2023/08/29 04:52:13;;;;;;;;;6.00;5.33;;;;;17.20;63.85;100870.22;5071734;27;45309;-71
2023/08/29 04:54:38;;;;;;;;;8.00;7.67;;;;;17.22;63.67;100865.53;5057309;28;46038;-78
2023/08/29 04:57:04;;;;;;;;;11.33;7.67;;;;;17.17;63.82;100870.59;5057875;28;46056;-71
2023/08/29 04:59:30;;;;;;;;;6.67;6.33;;;;;17.17;63.88;100873.28;5058522;28;45292;-71
2023/08/29 05:01:55;;;;;;;;;5.67;5.00;;;;;17.12;64.15;100870.31;5059483;28;45526;-70
2023/08/29 05:04:21;;;;;;;;;7.67;6.67;;;;;17.05;64.29;100858.66;5058729;28;46553;-71
2023/08/29 05:06:46;;;;;;;;;9.00;7.33;;;;;17.12;64.42;100878.38;5059375;28;45250;-71
2023/08/29 05:09:11;;;;;;;;;5.67;5.00;;;;;17.06;64.37;100875.59;5059169;28;45578;-70
2023/08/29 05:11:36;;;;;;;;;5.00;4.67;;;;;17.00;64.80;100864.53;5059103;28;48777;-71
2023/08/29 05:14:02;;;;;;;;;9.67;9.67;;;;;16.92;65.08;100858.44;5058881;28;46094;-70
2023/08/29 05:16:28;;;;;;;;;8.33;7.33;;;;;16.76;65.12;100823.66;5059205;28;45161;-70
2023/08/29 05:18:53;;;;;;;;;10.33;7.33;;;;;16.71;65.14;100824.22;5058335;28;45338;-70
2023/08/29 05:21:18;;;;;;;;;5.00;5.00;;;;;17.09;64.58;100877.91;5059443;28;45366;-72
2023/08/29 05:23:44;;;;;;;;;7.67;6.33;;;;;17.10;64.95;100877.72;5058961;28;46921;-70
2023/08/29 05:26:09;;;;;;;;;8.33;6.67;;;;;16.80;65.07;100830.34;5057315;28;45522;-73
2023/08/29 05:28:34;;;;;;;;;6.00;6.00;;;;;17.01;64.87;100866.22;5059183;28;45329;-71
2023/08/29 05:30:59;;;;;;;;;7.00;7.00;;;;;17.15;64.70;100880.69;5058570;28;45388;-71
2023/08/29 05:33:25;;;;;;;;;8.00;7.00;;;;;17.14;64.61;100879.03;5056962;28;47454;-72
2023/08/29 05:35:50;;;;;;;;;9.33;6.00;;;;;17.12;64.94;100874.84;5058730;28;45423;-70
2023/08/29 05:38:15;;;;;;;;;8.00;5.00;;;;;16.93;64.41;100833.25;5057466;28;45520;-69
2023/08/29 05:40:41;;;;;;;;;9.67;7.33;;;;;16.94;64.83;100834.91;5074520;27;45328;-70
2023/08/29 05:43:06;;;;;;;;;9.00;7.00;;;;;17.24;64.40;100876.09;5073736;27;49831;-70
2023/08/29 05:45:31;;;;;;;;;6.33;6.00;;;;;17.26;64.34;100880.25;5058483;28;45276;-71
2023/08/29 05:47:57;;;;;;;;;6.33;6.00;;;;;17.30;64.52;100873.47;5058258;28;45553;-71
2023/08/29 05:50:22;;;;;;;;;7.00;7.00;;;;;17.33;64.12;100873.09;5058715;28;45509;-70
2023/08/29 05:52:47;;;;;;;;;7.67;7.00;;;;;17.37;64.14;100870.03;5057761;28;63808;-70
2023/08/29 05:55:13;;;;;;;;;6.00;5.00;;;;;17.37;64.60;100872.72;5058211;28;45463;-70
2023/08/29 05:57:38;;;;;;;;;7.00;7.00;;;;;17.33;64.21;100861.53;5058453;28;45383;-69
2023/08/29 06:00:07;;;;;;;;;10.33;6.67;;;;;17.40;64.33;100858.91;5058167;28;45696;-72
2023/08/29 06:02:33;;;;;;;;;9.00;7.33;;;;;17.07;64.38;100805.56;5057633;28;46534;-70
2023/08/29 06:04:58;;;;;;;;;7.00;6.33;;;;;17.44;64.43;100857.56;5058100;28;45566;-71
2023/08/29 06:07:24;;;;;;;;;5.33;5.33;;;;;17.53;64.17;100872.56;5057038;28;45584;-71
2023/08/29 06:09:50;;;;;;;;;7.67;5.33;;;;;17.59;63.73;100872.63;5073263;27;46443;-70
2023/08/29 06:12:15;;;;;;;;;6.00;6.00;;;;;17.57;64.23;100863.91;5057975;28;45678;-71
2023/08/29 06:14:40;;;;;;;;;6.00;6.00;;;;;17.37;64.05;100835.09;5073463;27;45460;-71
2023/08/29 06:17:06;;;;;;;;;8.67;7.33;;;;;17.59;63.56;100869.09;5057623;28;45501;-69
2023/08/29 06:19:31;;;;;;;;;7.00;6.00;;;;;17.66;64.03;100867.34;5057304;28;46800;-72
2023/08/29 06:21:56;;;;;;;;;15.33;11.00;;;;;17.70;63.76;100868.69;5057675;28;46313;-71
2023/08/29 06:24:22;;;;;;;;;4.33;4.33;;;;;17.66;63.94;100850.41;5056560;28;45329;-70
2023/08/29 06:26:47;;;;;;;;;7.00;6.33;;;;;17.81;63.63;100870.88;5057840;28;45372;-72
2023/08/29 06:29:13;;;;;;;;;10.33;7.00;;;;;17.97;63.63;100859.06;5072930;27;45451;-71
2023/08/29 06:31:41;;;;;;;;;7.33;7.33;;;;;18.41;63.09;100866.16;5057639;28;47063;-71
2023/08/29 06:34:06;;;;;;;;;9.67;7.33;;;;;18.90;61.85;100868.09;5057171;28;45438;-72
2023/08/29 06:36:31;;;;;;;;;8.33;7.00;;;;;19.41;60.35;100879.41;5057558;28;45242;-70
2023/08/29 06:38:57;;;;;;;;;7.00;7.00;;;;;19.93;58.95;100875.34;5057875;28;45272;-70
2023/08/29 06:41:22;;;;;;;;;8.67;7.00;;;;;20.33;58.03;100849.31;5055889;28;48583;-71
2023/08/29 06:43:47;;;;;;;;;8.67;8.67;;;;;20.92;56.33;100873.69;5057366;28;45391;-70
2023/08/29 06:46:14;;;;;;;;;7.67;6.67;;;;;21.32;55.42;100867.44;5057499;28;45462;-72
2023/08/29 06:48:40;;;;;;;;;6.00;6.00;;;;;21.69;54.01;100865.88;5057172;28;45855;-70
2023/08/29 06:51:06;;;;;;;;;5.00;5.00;;;;;22.01;52.98;100856.75;5055522;28;47726;-72
2023/08/29 06:53:32;;;;;;;;;7.00;7.00;;;;;22.45;52.39;100868.63;5057339;28;45504;-71
2023/08/29 06:55:57;;;;;;;;;7.33;5.00;;;;;22.85;51.20;100869.19;5057086;28;45445;-72
2023/08/29 06:58:23;;;;;;;;;7.67;6.67;;;;;23.18;50.86;100852.59;5057721;28;45506;-70
2023/08/29 07:00:48;;;;;;;;;8.67;8.67;;;;;23.55;49.13;100858.03;5056657;28;46015;-72
2023/08/29 07:03:13;;;;;;;;;5.00;5.00;;;;;23.55;48.88;100814.63;5055836;28;48388;-70
2023/08/29 07:05:39;;;;;;;;;10.00;8.33;;;;;24.14;48.15;100872.78;5056943;28;45438;-71
2023/08/29 07:08:05;;;;;;;;;7.67;7.00;;;;;24.49;47.36;100876.47;5057589;28;45351;-72
2023/08/29 07:10:30;;;;;;;;;8.67;8.67;;;;;24.66;46.39;100856.78;5072335;27;48208;-72
2023/08/29 07:12:55;;;;;;;;;8.67;6.67;;;;;25.03;45.85;100881.88;5056224;28;59048;-71
2023/08/29 07:15:21;;;;;;;;;5.00;5.00;;;;;25.45;45.00;100882.63;5057181;28;46583;-72
2023/08/29 07:17:46;;;;;;;;;4.67;4.67;;;;;25.81;44.09;100883.38;5056186;28;45304;-72
2023/08/29 07:20:12;;;;;;;;;8.00;8.00;;;;;26.11;43.21;100866.81;5056438;28;45858;-72
2023/08/29 07:22:40;;;;;;;;;9.33;8.00;;;;;26.25;42.23;100849.09;5055225;28;45312;-73
2023/08/29 07:25:06;;;;;;;;;8.33;6.67;;;;;26.64;41.63;100880.91;5056823;28;45485;-72
2023/08/29 07:27:31;;;;;;;;;7.33;6.00;;;;;26.97;41.37;100885.53;5072906;27;45422;-72
2023/08/29 07:29:57;;;;;;;;;8.67;8.67;;;;;27.13;40.64;100847.59;5056866;28;46350;-71
2023/08/29 07:32:22;;;;;;;;;9.00;8.00;;;;;27.62;39.72;100884.03;5072583;27;45308;-71
2023/08/29 07:34:47;;;;;;;;;16.67;16.67;;;;;27.96;39.48;100871.09;5070131;28;45339;-71
2023/08/29 07:37:13;;;;;;;;;4.00;3.00;;;;;28.32;38.52;100882.44;5056579;28;45379;-71
2023/08/29 07:39:38;;;;;;;;;14.33;14.00;;;;;28.61;38.41;100889.28;5056666;28;46397;-71
2023/08/29 07:42:03;;;;;;;;;10.00;9.00;;;;;28.80;38.00;100884.25;5056084;28;45429;-71
2023/08/29 07:44:29;;;;;;;;;8.67;7.00;;;;;28.89;36.95;100855.34;5060089;28;45541;-71
2023/08/29 07:46:55;;;;;;;;;8.00;8.00;;;;;29.33;36.78;100882.47;5056943;27;45395;-72
2023/08/29 07:49:21;;;;;;;;;10.00;8.67;;;;;29.59;36.17;100875.22;5053840;28;48613;-72
2023/08/29 07:51:47;;;;;;;;;8.67;7.00;;;;;29.77;35.20;100882.97;5056300;28;45890;-72
2023/08/29 07:54:12;;;;;;;;;6.00;5.00;;;;;30.02;35.23;100887.72;5056734;28;45505;-70
2023/08/29 07:56:37;;;;;;;;;10.67;9.00;;;;;30.03;34.36;100836.44;5056739;28;45466;-74
2023/08/29 07:59:03;;;;;;;;;12.67;12.67;;;;;30.51;33.84;100860.69;5056321;28;45943;-71
2023/08/29 08:01:28;;;;;;;;;13.33;13.00;;;;;30.93;33.40;100873.34;5056392;28;45359;-71
2023/08/29 08:03:54;;;;;;;;;6.33;6.33;;;;;31.28;32.77;100866.19;5056652;28;45303;-71
2023/08/29 08:06:19;;;;;;;;;10.00;6.33;;;;;31.66;32.43;100878.41;5057574;28;45323;-71
2023/08/29 08:08:44;;;;;;;;;8.00;6.67;;;;;32.02;31.20;100874.41;5055595;28;45854;-72
2023/08/29 08:11:10;;;;;;;;;7.33;7.00;;;;;31.95;30.86;100864.81;5054160;28;45427;-71
2023/08/29 08:13:35;;;;;;;;;6.00;5.00;;;;;32.21;30.66;100866.31;5061026;28;45694;-72
2023/08/29 08:16:00;;;;;;;;;7.00;6.00;;;;;32.18;30.49;100820.13;5062077;28;45396;-71
2023/08/29 08:18:26;;;;;;;;;4.00;4.00;;;;;32.70;29.71;100865.44;5059286;28;46711;-71
2023/08/29 08:20:51;;;;;;;;;5.00;5.00;;;;;32.79;29.69;100855.44;5059780;28;45639;-71
2023/08/29 08:23:16;;;;;;;;;7.00;5.67;;;;;32.93;28.98;100844.59;5056001;28;45445;-71
2023/08/29 08:25:42;;;;;;;;;4.00;4.00;;;;;32.55;29.38;100794.00;5054611;28;45580;-71
2023/08/29 08:28:07;;;;;;;;;6.00;6.00;;;;;32.56;29.79;100861.69;5055555;28;55804;-71
2023/08/29 08:30:36;;;;;;;;;2.67;2.67;;;;;32.04;30.35;100871.38;5058595;28;45450;-71
2023/08/29 08:33:02;;;;;;;;;8.00;7.00;;;;;32.05;29.92;100867.53;5059374;28;45542;-70
2023/08/29 08:35:27;;;;;;;;;3.00;3.00;;;;;32.08;29.36;100853.22;5059767;28;45485;-71
2023/08/29 08:37:53;;;;;;;;;4.00;4.00;;;;;32.23;29.69;100853.09;5058991;28;59724;-71
2023/08/29 08:40:19;;;;;;;;;4.00;3.00;;;;;32.15;29.08;100861.94;5074727;27;45457;-70
2023/08/29 08:42:44;;;;;;;;;3.00;3.00;;;;;32.10;29.63;100866.69;5059345;28;45538;-71
2023/08/29 08:45:10;;;;;;;;;8.67;8.67;;;;;32.27;29.30;100858.91;5059280;28;45496;-72
2023/08/29 08:47:36;;;;;;;;;4.00;3.00;;;;;32.55;28.39;100860.88;5059008;28;46684;-69
2023/08/29 08:50:04;;;;;;;;;3.67;3.00;;;;;32.87;27.93;100851.28;5059437;28;45516;-71
2023/08/29 08:52:36;;;;;;;;;2.33;2.00;;;;;33.07;27.08;100825.47;5059094;28;45387;-71
2023/08/29 08:55:01;;;;;;;;;7.67;7.67;;;;;33.56;26.52;100864.56;5059525;28;45525;-72
2023/08/29 08:57:27;;;;;;;;;4.67;4.67;;;;;33.74;27.19;100857.47;5058413;28;45477;-72
2023/08/29 08:59:53;;;;;;;;;2.33;2.33;;;;;34.04;26.75;100859.03;5074696;27;46077;-71
2023/08/29 09:02:19;;;;;;;;;3.00;1.67;;;;;34.51;26.14;100861.91;5058684;28;45336;-73
2023/08/29 09:04:44;;;;;;;;;2.33;2.33;;;;;34.12;25.88;100860.28;5059626;28;45330;-73
2023/08/29 09:07:10;;;;;;;;;2.00;2.00;;;;;33.56;26.21;100870.09;5058713;28;45924;-72
2023/08/29 09:09:35;;;;;;;;;2.00;2.00;;;;;33.37;25.76;100808.59;5059306;28;45597;-72
2023/08/29 09:12:01;;;;;;;;;2.00;2.00;;;;;33.33;26.01;100824.06;5058560;28;45524;-72
2023/08/29 09:14:26;;;;;;;;;3.00;3.00;;;;;32.83;26.49;100815.22;5058266;28;45273;-72
2023/08/29 09:16:59;;;;;;;;;2.67;2.67;;;;;33.54;26.57;100850.28;5058621;28;46461;-71
2023/08/29 09:19:29;;;;;;;;;3.00;2.00;;;;;34.23;25.51;100855.41;5058236;28;45268;-72
2023/08/29 09:21:54;;;;;;;;;3.67;2.67;;;;;35.19;24.81;100839.97;5058910;28;45407;-72
2023/08/29 09:24:33;;;;;;;;;2.00;2.00;;;;;36.12;22.89;100846.06;5059287;28;46183;-73
2023/08/29 09:26:59;;;;;;;;;4.00;4.00;;;;;37.24;21.21;100831.31;5052167;28;45798;-72
2023/08/29 09:29:25;;;;;;;;;1.33;1.33;;;;;38.09;20.01;100846.56;5058840;28;45206;-71
2023/08/29 09:31:50;;;;;;;;;0.67;0.67;;;;;38.90;19.72;100843.88;5058658;28;45387;-72
2023/08/29 09:34:42;;;;;;;;;2.00;2.00;;;;;38.42;20.21;100838.53;5058378;28;45343;-72
2023/08/29 09:37:11;;;;;;;;;3.00;3.00;;;;;38.72;19.72;100842.28;5053972;28;45821;-72
2023/08/29 09:39:37;;;;;;;;;2.00;2.00;;;;;39.23;18.79;100840.47;5058175;28;45354;-72
2023/08/29 09:42:04;;;;;;;;;3.33;3.33;;;;;39.78;18.13;100833.97;5057899;28;45503;-72
2023/08/29 09:44:33;;;;;;;;;2.00;2.00;;;;;40.43;17.79;100818.53;5057347;28;45300;-71
2023/08/29 09:46:58;;;;;;;;;2.00;2.00;;;;;40.88;17.66;100812.19;5057464;28;46478;-72
2023/08/29 09:49:30;;;;;;;;;1.33;1.00;;;;;41.36;16.75;100825.34;5058108;28;45477;-71
2023/08/29 09:52:00;;;;;;;;;2.67;2.67;;;;;41.53;16.50;100796.38;5058376;28;45493;-72
2023/08/29 09:54:28;;;;;;;;;3.33;3.33;;;;;42.07;15.89;100823.97;5057828;28;45425;-72
2023/08/29 09:56:54;;;;;;;;;2.00;2.00;;;;;41.81;16.31;100813.19;5060181;28;45692;-71
2023/08/29 09:59:21;;;;;;;;;2.33;2.33;;;;;42.20;15.74;100808.75;5054829;28;46397;-72
2023/08/29 10:01:49;;;;;;;;;3.67;1.67;;;;;41.63;16.31;100773.53;5064665;28;45581;-71
2023/08/29 10:04:20;;;;;;;;;2.00;2.00;;;;;40.70;17.16;100798.41;5060401;27;45568;-71
2023/08/29 10:06:48;;;;;;;;;1.33;1.33;;;;;39.53;17.72;100814.31;5057748;28;47192;-72
2023/08/29 10:09:14;;;;;;;;;4.00;4.00;;;;;38.01;18.70;100789.06;5057877;28;45402;-73
2023/08/29 10:11:42;;;;;;;;;3.00;3.00;;;;;36.73;19.91;100791.13;5068029;28;45493;-72
2023/08/29 10:14:09;;;;;;;;;6.00;3.67;;;;;35.60;21.32;100812.34;5072917;27;45421;-73
2023/08/29 10:16:36;;;;;;;;;4.00;3.67;;;;;34.37;22.02;100806.66;5057995;27;45308;-72
2023/08/29 10:19:01;;;;;;;;;2.00;2.00;;;;;33.33;23.24;100787.44;5056751;28;45536;-71
2023/08/29 10:21:28;;;;;;;;;1.33;1.33;;;;;32.46;24.60;100773.72;5059758;28;45416;-72
2023/08/29 10:23:54;;;;;;;;;2.00;2.00;;;;;31.97;25.84;100810.38;5071098;27;45373;-72
2023/08/29 10:26:21;;;;;;;;;3.00;3.00;;;;;31.29;26.61;100807.38;5057574;27;46438;-73
2023/08/29 10:28:48;;;;;;;;;1.00;1.00;;;;;30.69;27.35;100809.13;5056597;28;45461;-73
2023/08/29 10:31:17;;;;;;;;;1.00;1.00;;;;;30.31;28.22;100805.00;5057659;28;45339;-71
2023/08/29 10:33:42;;;;;;;;;5.33;2.00;;;;;29.75;28.99;100775.53;5063371;28;45605;-71
2023/08/29 10:36:09;;;;;;;;;2.00;2.00;;;;;29.61;28.89;100804.53;5057268;28;45500;-71
2023/08/29 10:38:40;;;;;;;;;4.33;4.00;;;;;29.23;28.84;100806.53;5060854;28;45662;-71
2023/08/29 10:41:10;;;;;;;;;4.00;3.00;;;;;29.00;29.22;100793.28;5063493;28;45363;-71
2023/08/29 10:43:36;;;;;;;;;2.00;2.00;;;;;28.78;29.02;100785.19;5063850;27;45473;-70
2023/08/29 10:46:10;;;;;;;;;2.00;2.00;;;;;28.65;29.68;100788.38;5058278;28;45700;-71
2023/08/29 10:48:35;;;;;;;;;1.00;1.00;;;;;28.43;30.36;100774.78;5057113;28;45218;-71
2023/08/29 10:51:07;;;;;;;;;4.33;4.33;;;;;28.18;31.02;100770.72;5072562;27;45576;-72
2023/08/29 10:54:05;;;;;;;;;6.00;4.00;;;;;27.99;31.29;100757.69;5055601;28;45565;-72
2023/08/29 10:56:43;;;;;;;;;3.33;3.33;;;;;27.87;32.11;100766.09;5055661;28;48241;-73
2023/08/29 10:59:29;;;;;;;;;5.67;4.00;;;;;27.84;31.80;100786.56;5042493;28;45553;-71
2023/08/29 11:02:27;;;;;;;;;4.33;3.33;;;;;27.70;32.25;100781.75;5057440;28;45547;-69
2023/08/29 11:05:16;;;;;;;;;5.00;4.00;;;;;27.41;34.33;100778.34;5057526;28;45550;-71
2023/08/29 11:07:42;;;;;;;;;4.33;4.00;;;;;27.09;36.16;100773.59;5046261;28;46486;-72
2023/08/29 11:10:20;;;;;;;;;3.67;3.67;;;;;26.78;36.80;100785.94;5055496;28;45838;-71
2023/08/29 11:13:07;;;;;;;;;3.00;3.00;;;;;26.56;37.91;100793.22;5072672;27;45297;-71
2023/08/29 11:15:48;;;;;;;;;4.00;4.00;;;;;26.29;38.73;100787.56;5089614;27;45561;-71
2023/08/29 11:18:30;;;;;;;;;5.00;5.00;;;;;25.97;39.29;100773.66;5056600;28;46473;-70
2023/08/29 11:20:57;;;;;;;;;6.33;4.67;;;;;25.78;39.56;100776.56;5056538;28;45573;-72
2023/08/29 11:23:22;;;;;;;;;3.33;3.33;;;;;25.70;39.95;100784.31;5054935;28;45279;-71
2023/08/29 11:25:51;;;;;;;;;4.33;3.67;;;;;25.52;40.15;100789.91;5056537;28;45252;-70